createdAt,value
2019-04-21T00:01:08.788Z,85.80
2019-04-21T00:03:43.082Z,86.90
2019-04-21T00:06:30.952Z,87.00
2019-04-21T00:09:02.712Z,87.10
2019-04-21T00:11:29.864Z,86.80
2019-04-21T00:13:52.406Z,87.80
2019-04-21T00:16:15.304Z,87.40
2019-04-21T00:18:58.199Z,87.60
2019-04-21T00:21:29.226Z,87.50
2019-04-21T00:24:29.212Z,87.60
2019-04-21T00:27:01.944Z,87.60
2019-04-21T00:29:38.417Z,88.00
2019-04-21T00:32:03.077Z,88.60
2019-04-21T00:34:19.575Z,89.00
2019-04-21T00:36:59.639Z,89.60
2019-04-21T00:39:48.975Z,88.00
2019-04-21T00:42:11.233Z,88.20
2019-04-21T00:44:33.233Z,88.60
2019-04-21T00:47:08.510Z,88.90
2019-04-21T00:49:42.765Z,89.60
2019-04-21T00:52:30.269Z,89.40
2019-04-21T00:55:01.104Z,90.00
2019-04-21T00:57:27.796Z,90.20
2019-04-21T01:00:00.847Z,90.40
2019-04-21T01:02:34.233Z,90.20
2019-04-21T01:05:08.732Z,90.20
2019-04-21T01:07:31.474Z,90.20
2019-04-21T01:09:54.368Z,90.20
2019-04-21T01:12:33.086Z,90.20
2019-04-21T01:15:09.235Z,90.20
2019-04-21T01:17:35.697Z,90.20
2019-04-21T01:20:01.183Z,90.10
2019-04-21T01:22:16.317Z,90.10
2019-04-21T01:24:48.744Z,90.10
2019-04-21T01:27:33.572Z,90.10
2019-04-21T01:30:14.318Z,90.10
2019-04-21T01:32:46.843Z,90.20
2019-04-21T01:35:10.198Z,90.20
2019-04-21T01:37:43.781Z,90.50
2019-04-21T01:40:16.952Z,90.30
2019-04-21T01:43:07.998Z,90.20
2019-04-21T01:45:37.634Z,90.10
2019-04-21T01:48:05.719Z,90.30
2019-04-21T01:50:41.177Z,90.60
2019-04-21T01:53:30.889Z,90.40
2019-04-21T01:56:03.359Z,90.40
2019-04-21T01:58:25.436Z,90.40
2019-04-21T02:01:03.458Z,90.80
2019-04-21T02:08:36.410Z,90.70
2019-04-21T02:11:17.652Z,90.80
2019-04-21T02:13:53.522Z,91.20
2019-04-21T02:16:17.040Z,90.80
2019-04-21T02:18:45.361Z,91.10
2019-04-21T02:21:14.809Z,90.90
2019-04-21T02:23:54.336Z,91.30
2019-04-21T02:26:23.026Z,91.40
2019-04-21T02:28:56.032Z,91.30
2019-04-21T02:34:06.980Z,91.50
2019-04-21T02:39:19.160Z,91.60
2019-04-21T02:41:43.792Z,92.00
2019-04-21T02:44:08.256Z,92.00
2019-04-21T02:46:42.511Z,92.00
2019-04-21T02:49:13.262Z,92.10
2019-04-21T02:57:01.690Z,92.20
2019-04-21T02:59:28.989Z,92.50
2019-04-21T03:04:34.881Z,93.10
2019-04-21T03:07:14.963Z,93.10
2019-04-21T03:09:35.891Z,93.20
2019-04-21T03:12:22.278Z,93.30
2019-04-21T03:14:58.190Z,93.60
2019-04-21T03:17:23.903Z,93.90
2019-04-21T03:19:53.691Z,93.70
2019-04-21T03:22:22.601Z,93.80
2019-04-21T03:25:04.263Z,93.90
2019-04-21T03:27:30.810Z,94.30
2019-04-21T03:29:59.448Z,94.50
2019-04-21T03:42:34.197Z,95.20
2019-04-21T03:47:30.774Z,95.30
2019-04-21T03:52:42.419Z,95.50
2019-04-21T03:58:19.590Z,95.80
2019-04-21T04:00:58.542Z,96.00
2019-04-21T04:03:46.986Z,96.10
2019-04-21T04:06:13.388Z,96.00
2019-04-21T04:13:53.401Z,96.40
2019-04-21T04:16:06.158Z,96.60
2019-04-21T04:18:46.145Z,96.80
2019-04-21T04:21:12.279Z,97.00
2019-04-21T04:23:45.338Z,97.10
2019-04-21T04:29:04.214Z,97.30
2019-04-21T04:31:26.002Z,97.30
2019-04-21T04:34:04.486Z,97.50
2019-04-21T04:36:26.381Z,97.50
2019-04-21T04:39:16.249Z,97.60
2019-04-21T04:44:39.394Z,97.80
2019-04-21T04:49:40.134Z,97.80
2019-04-21T04:52:15.593Z,97.80
2019-04-21T04:54:40.087Z,97.80
2019-04-21T04:57:07.482Z,97.60
2019-04-21T05:02:17.009Z,98.20
2019-04-21T05:09:31.578Z,98.20
2019-04-21T05:12:01.973Z,98.20
2019-04-21T05:14:39.531Z,98.20
2019-04-21T05:17:17.133Z,98.30
2019-04-21T05:22:19.926Z,98.30
2019-04-21T05:24:36.090Z,98.20
2019-04-21T05:27:02.764Z,98.20
2019-04-21T05:29:37.782Z,98.10
2019-04-21T05:32:26.433Z,98.10
2019-04-21T05:34:55.975Z,98.20
2019-04-21T05:37:36.706Z,98.10
2019-04-21T05:40:05.813Z,98.10
2019-04-21T05:42:39.637Z,97.90
2019-04-21T05:45:21.138Z,97.80
2019-04-21T05:47:56.312Z,97.90
2019-04-21T05:50:16.621Z,97.80
2019-04-21T05:52:46.192Z,97.60
2019-04-21T05:55:33.446Z,97.90
2019-04-21T05:57:58.311Z,97.50
2019-04-21T06:03:04.939Z,97.20
2019-04-21T06:08:09.822Z,97.10
2019-04-21T06:10:43.297Z,96.80
2019-04-21T06:13:12.903Z,96.80
2019-04-21T06:15:48.471Z,96.80
2019-04-21T06:18:21.789Z,96.80
2019-04-21T06:20:52.934Z,96.70
2019-04-21T06:23:20.336Z,96.20
2019-04-21T06:26:09.443Z,96.10
2019-04-21T06:28:20.916Z,96.10
2019-04-21T06:31:01.552Z,95.70
2019-04-21T06:33:30.659Z,95.60
2019-04-21T06:36:26.467Z,95.50
2019-04-21T06:38:59.621Z,95.40
2019-04-21T06:41:31.492Z,95.20
2019-04-21T06:44:07.615Z,94.60
2019-04-21T06:46:40.765Z,94.30
2019-04-21T06:51:33.763Z,93.60
2019-04-21T06:54:04.088Z,93.40
2019-04-21T06:59:06.430Z,92.90
2019-04-21T07:01:36.351Z,92.70
2019-04-21T07:04:13.370Z,92.50
2019-04-21T07:06:42.644Z,92.30
2019-04-21T07:09:16.005Z,92.20
2019-04-21T07:11:39.362Z,92.10
2019-04-21T07:14:25.851Z,91.90
2019-04-21T07:16:44.915Z,91.70
2019-04-21T07:19:25.714Z,91.50
2019-04-21T07:21:48.017Z,91.30
2019-04-21T07:24:21.742Z,91.10
2019-04-21T07:26:51.358Z,90.90
2019-04-21T07:29:21.984Z,90.80
2019-04-21T07:31:55.558Z,90.40
2019-04-21T07:39:17.618Z,90.00
2019-04-21T07:41:49.673Z,90.10
2019-04-21T07:44:17.722Z,90.00
2019-04-21T07:46:44.658Z,90.00
2019-04-21T07:49:40.023Z,89.30
2019-04-21T07:52:28.287Z,89.60
2019-04-21T07:55:16.663Z,89.10
2019-04-21T07:57:35.411Z,89.60
2019-04-21T08:00:16.061Z,87.60
2019-04-21T08:02:38.550Z,87.50
2019-04-21T08:05:21.361Z,87.40
2019-04-21T08:07:47.817Z,87.20
2019-04-21T08:10:04.807Z,86.50
2019-04-21T08:12:40.829Z,86.40
2019-04-21T08:15:17.663Z,85.80
2019-04-21T08:17:45.710Z,85.70
2019-04-21T08:20:09.347Z,85.20
2019-04-21T08:22:46.574Z,84.30
2019-04-21T08:25:14.933Z,84.30
2019-04-21T08:27:47.887Z,83.00
2019-04-21T08:30:22.839Z,82.90
2019-04-21T08:37:48.418Z,80.70
2019-04-21T08:40:26.655Z,80.70
2019-04-21T08:42:54.045Z,79.80
2019-04-21T08:47:52.340Z,78.00
2019-04-21T08:50:26.215Z,78.20
2019-04-21T08:55:31.829Z,76.20
2019-04-21T08:58:15.977Z,75.90
2019-04-21T09:00:45.175Z,73.70
2019-04-21T09:03:28.504Z,72.60
2019-04-21T09:06:05.886Z,72.60
2019-04-21T09:08:37.648Z,71.40
2019-04-21T09:10:59.018Z,71.40
2019-04-21T09:13:29.692Z,69.00
2019-04-21T09:15:59.418Z,68.00
2019-04-21T09:18:26.845Z,68.60
2019-04-21T09:21:06.192Z,68.80
2019-04-21T09:23:36.168Z,68.80
2019-04-21T09:26:05.998Z,67.50
2019-04-21T09:28:37.069Z,67.10
2019-04-21T09:30:56.896Z,66.20
2019-04-21T09:33:28.046Z,64.10
2019-04-21T09:35:59.297Z,65.30
2019-04-21T09:38:33.846Z,63.10
2019-04-21T09:40:56.542Z,65.00
2019-04-21T09:43:34.116Z,63.20
2019-04-21T09:45:58.874Z,63.60
2019-04-21T09:48:37.405Z,61.70
2019-04-21T09:50:59.679Z,60.60
2019-04-21T09:53:34.451Z,60.30
2019-04-21T09:56:04.912Z,61.00
2019-04-21T09:58:39.890Z,60.40
2019-04-21T10:01:12.234Z,58.80
2019-04-21T10:03:40.632Z,59.50
2019-04-21T10:06:04.857Z,58.30
2019-04-21T10:08:34.407Z,58.50
2019-04-21T10:11:05.306Z,57.60
2019-04-21T10:13:36.083Z,57.70
2019-04-21T10:16:10.866Z,57.90
2019-04-21T10:18:40.390Z,55.70
2019-04-21T10:21:18.008Z,56.50
2019-04-21T10:23:47.967Z,54.70
2019-04-21T10:26:18.681Z,52.90
2019-04-21T10:28:49.048Z,54.00
2019-04-21T10:31:18.569Z,53.40
2019-04-21T10:33:48.509Z,51.20
2019-04-21T10:36:19.099Z,51.40
2019-04-21T10:38:52.226Z,49.20
2019-04-21T10:41:21.373Z,49.80
2019-04-21T10:43:51.384Z,48.60
2019-04-21T10:46:20.899Z,48.60
2019-04-21T10:48:50.635Z,49.30
2019-04-21T10:51:21.210Z,48.50
2019-04-21T10:53:54.249Z,49.80
2019-04-21T10:56:30.621Z,50.00
2019-04-21T10:58:54.629Z,49.70
2019-04-21T11:01:25.462Z,47.70
2019-04-21T11:04:00.616Z,49.80
2019-04-21T11:06:30.815Z,49.90
2019-04-21T11:09:03.010Z,49.60
2019-04-21T11:11:32.099Z,46.50
2019-04-21T11:14:02.459Z,49.40
2019-04-21T11:16:33.123Z,49.30
2019-04-21T11:19:02.539Z,46.70
2019-04-21T11:21:31.929Z,47.90
2019-04-21T11:24:01.891Z,48.60
2019-04-21T11:26:31.990Z,48.50
2019-04-21T11:29:01.351Z,48.00
2019-04-21T11:31:31.256Z,48.60
2019-04-21T11:34:01.042Z,47.30
2019-04-21T11:36:31.322Z,48.30
2019-04-21T11:39:12.375Z,47.70
2019-04-21T11:41:34.118Z,48.60
2019-04-21T11:44:05.034Z,48.40
2019-04-21T11:46:34.558Z,46.40
2019-04-21T11:49:04.193Z,45.70
2019-04-21T11:51:33.627Z,45.90
2019-04-21T11:54:03.023Z,44.50
2019-04-21T11:56:32.794Z,44.10
2019-04-21T11:59:03.757Z,44.40
2019-04-21T12:01:33.874Z,44.00
2019-04-21T12:04:03.483Z,43.30
2019-04-21T12:06:40.937Z,42.70
2019-04-21T12:09:06.982Z,42.00
2019-04-21T12:11:37.093Z,41.50
2019-04-21T12:14:07.996Z,41.90
2019-04-21T12:16:37.393Z,41.30
2019-04-21T12:19:07.166Z,41.20
2019-04-21T12:21:50.563Z,42.10
2019-04-21T12:24:08.949Z,41.70
2019-04-21T12:26:38.528Z,42.00
2019-04-21T12:29:08.121Z,42.10
2019-04-21T12:31:45.481Z,41.40
2019-04-21T12:34:16.069Z,39.90
2019-04-21T12:36:46.525Z,39.50
2019-04-21T12:39:16.877Z,40.80
2019-04-21T12:41:46.704Z,38.60
2019-04-21T12:44:16.159Z,38.90
2019-04-21T12:46:45.641Z,38.50
2019-04-21T12:49:15.918Z,38.60
2019-04-21T12:51:46.109Z,38.80
2019-04-21T12:54:15.584Z,39.20
2019-04-21T12:56:45.578Z,39.00
2019-04-21T12:59:15.137Z,39.30
2019-04-21T13:01:45.289Z,37.80
2019-04-21T13:04:15.609Z,38.00
2019-04-21T13:06:45.730Z,38.60
2019-04-21T13:09:18.730Z,38.50
2019-04-21T13:11:46.897Z,38.20
2019-04-21T13:14:17.755Z,38.50
2019-04-21T13:16:47.827Z,37.60
2019-04-21T13:19:17.638Z,38.00
2019-04-21T13:21:47.912Z,38.70
2019-04-21T13:24:17.833Z,39.10
2019-04-21T13:26:53.624Z,39.30
2019-04-21T13:29:18.476Z,38.50
2019-04-21T13:31:48.156Z,38.30
2019-04-21T13:34:18.052Z,37.50
2019-04-21T13:36:49.717Z,37.70
2019-04-21T13:40:01.581Z,38.20
2019-04-21T13:42:06.458Z,37.90
2019-04-21T13:44:28.896Z,36.90
2019-04-21T13:46:58.835Z,36.70
2019-04-21T13:49:29.559Z,36.60
2019-04-21T13:52:00.463Z,35.80
2019-04-21T13:54:31.496Z,36.00
2019-04-21T13:57:02.682Z,36.20
2019-04-21T13:59:32.209Z,36.30
2019-04-21T14:02:02.690Z,35.20
2019-04-21T14:04:33.579Z,34.90
2019-04-21T14:07:03.421Z,34.80
2019-04-21T14:09:40.265Z,34.00
2019-04-21T14:12:05.331Z,34.00
2019-04-21T14:14:34.928Z,33.50
2019-04-21T14:17:07.088Z,33.80
2019-04-21T14:19:37.410Z,34.50
2019-04-21T14:22:08.615Z,34.80
2019-04-21T14:24:38.735Z,35.40
2019-04-21T14:27:08.181Z,35.50
2019-04-21T14:29:37.765Z,35.40
2019-04-21T14:32:08.384Z,35.90
2019-04-21T14:34:37.805Z,34.30
2019-04-21T14:37:08.683Z,34.60
2019-04-21T14:39:50.407Z,34.40
2019-04-21T14:42:09.388Z,33.80
2019-04-21T14:44:38.862Z,34.50
2019-04-21T14:47:11.147Z,35.60
2019-04-21T14:49:59.465Z,34.40
2019-04-21T14:52:30.863Z,34.00
2019-04-21T14:55:18.550Z,33.20
2019-04-21T14:57:49.340Z,34.90
2019-04-21T15:00:20.918Z,35.40
2019-04-21T15:02:51.762Z,35.50
2019-04-21T15:05:21.734Z,35.10
2019-04-21T15:07:51.195Z,35.50
2019-04-21T15:10:25.539Z,34.50
2019-04-21T15:12:51.941Z,34.90
2019-04-21T15:15:21.277Z,35.20
2019-04-21T15:17:51.616Z,33.80
2019-04-21T15:20:22.044Z,33.80
2019-04-21T15:22:52.543Z,32.70
2019-04-21T15:25:22.036Z,32.80
2019-04-21T15:27:54.988Z,33.20
2019-04-21T15:30:24.790Z,31.90
2019-04-21T15:32:54.748Z,32.70
2019-04-21T15:35:24.933Z,32.90
2019-04-21T15:37:55.826Z,33.20
2019-04-21T15:40:37.475Z,33.40
2019-04-21T15:42:56.815Z,32.60
2019-04-21T15:45:26.510Z,33.00
2019-04-21T15:47:56.040Z,33.10
2019-04-21T15:50:26.510Z,32.70
2019-04-21T15:52:57.983Z,33.30
2019-04-21T15:55:44.531Z,33.00
2019-04-21T15:58:22.781Z,35.30
2019-04-21T16:01:10.400Z,36.90
2019-04-21T16:03:40.679Z,37.20
2019-04-21T16:06:10.022Z,36.10
2019-04-21T16:08:39.598Z,36.60
2019-04-21T16:11:11.383Z,37.50
2019-04-21T16:13:41.645Z,37.80
2019-04-21T16:16:12.453Z,37.60
2019-04-21T16:18:42.582Z,37.80
2019-04-21T16:21:13.713Z,36.80
2019-04-21T16:23:44.477Z,37.70
2019-04-21T16:26:14.971Z,38.40
2019-04-21T16:28:44.950Z,38.20
2019-04-21T16:31:14.549Z,37.80
2019-04-21T16:33:45.217Z,37.90
2019-04-21T16:36:16.743Z,37.60
2019-04-21T16:38:47.255Z,38.20
2019-04-21T16:41:18.165Z,36.90
2019-04-21T16:43:48.974Z,37.70
2019-04-21T16:46:19.678Z,37.10
2019-04-21T16:48:49.725Z,37.60
2019-04-21T16:51:20.220Z,37.80
2019-04-21T16:53:54.030Z,37.50
2019-04-21T16:56:31.132Z,38.20
2019-04-21T16:59:02.956Z,38.10
2019-04-21T17:01:34.263Z,38.50
2019-04-21T17:04:04.591Z,37.10
2019-04-21T17:06:35.297Z,36.80
2019-04-21T17:09:06.711Z,36.40
2019-04-21T17:11:41.571Z,36.60
2019-04-21T17:14:28.587Z,36.30
2019-04-21T17:17:03.722Z,36.30
2019-04-21T17:19:20.196Z,36.50
2019-04-21T17:21:43.699Z,37.20
2019-04-21T17:24:14.459Z,37.60
2019-04-21T17:26:44.738Z,38.00
2019-04-21T17:29:16.705Z,38.60
2019-04-21T17:31:47.612Z,38.80
2019-04-21T17:34:21.804Z,38.80
2019-04-21T17:36:48.747Z,39.60
2019-04-21T17:39:18.674Z,39.80
2019-04-21T17:41:59.132Z,40.20
2019-04-21T17:44:19.400Z,41.10
2019-04-21T17:46:57.275Z,41.30
2019-04-21T17:49:21.202Z,41.80
2019-04-21T17:51:58.496Z,41.80
2019-04-21T17:54:33.207Z,42.40
2019-04-21T17:57:16.233Z,42.00
2019-04-21T17:59:56.875Z,42.60
2019-04-21T18:02:21.285Z,42.20
2019-04-21T18:04:49.650Z,43.10
2019-04-21T18:07:27.439Z,43.70
2019-04-21T18:10:04.497Z,42.90
2019-04-21T18:12:33.411Z,43.30
2019-04-21T18:14:56.502Z,44.00
2019-04-21T18:17:18.681Z,43.50
2019-04-21T18:19:51.287Z,44.20
2019-04-21T18:22:31.326Z,45.10
2019-04-21T18:25:04.000Z,45.10
2019-04-21T18:27:29.742Z,45.20
2019-04-21T18:30:04.374Z,45.50
2019-04-21T18:32:38.481Z,46.10
2019-04-21T18:35:20.862Z,46.90
2019-04-21T18:38:04.518Z,46.70
2019-04-21T18:40:31.108Z,47.50
2019-04-21T18:43:27.661Z,47.40
2019-04-21T18:45:55.409Z,47.90
2019-04-21T18:48:14.999Z,47.90
2019-04-21T18:50:46.276Z,48.30
2019-04-21T18:53:24.133Z,49.50
2019-04-21T18:55:49.121Z,49.70
2019-04-21T18:58:15.723Z,50.00
2019-04-21T19:00:45.798Z,50.50
2019-04-21T19:03:25.269Z,50.90
2019-04-21T19:05:53.185Z,51.20
2019-04-21T19:08:31.329Z,51.10
2019-04-21T19:11:08.808Z,50.60
2019-04-21T19:14:10.463Z,50.50
2019-04-21T19:18:53.051Z,51.50
2019-04-21T19:21:12.870Z,51.50
2019-04-21T19:23:52.082Z,52.30
2019-04-21T19:28:52.183Z,52.60
2019-04-21T19:31:26.218Z,53.10
2019-04-21T19:33:42.460Z,53.10
2019-04-21T19:36:01.620Z,53.80
2019-04-21T19:38:45.836Z,53.70
2019-04-21T19:41:24.703Z,53.90
2019-04-21T19:43:55.046Z,54.20
2019-04-21T19:46:23.656Z,54.80
2019-04-21T19:49:01.209Z,54.20
2019-04-21T19:51:24.502Z,54.90
2019-04-21T19:53:50.666Z,55.00
2019-04-21T19:56:10.067Z,55.30
2019-04-21T19:58:43.567Z,56.30
2019-04-21T20:01:11.790Z,55.80
2019-04-21T20:03:43.148Z,55.70
2019-04-21T20:06:28.678Z,56.40
2019-04-21T20:09:00.723Z,57.00
2019-04-21T20:11:34.688Z,57.90
2019-04-21T20:14:35.621Z,57.80
2019-04-21T20:16:37.562Z,58.30
2019-04-21T20:18:55.476Z,58.30
2019-04-21T20:21:20.671Z,58.70
2019-04-21T20:23:51.614Z,59.20
2019-04-21T20:26:30.475Z,59.00
2019-04-21T20:29:07.276Z,60.20
2019-04-21T20:31:43.005Z,60.30
2019-04-21T20:34:16.065Z,61.40
2019-04-21T20:36:51.839Z,62.30
2019-04-21T20:39:05.640Z,62.70
2019-04-21T20:41:41.004Z,63.90
2019-04-21T20:44:21.118Z,65.90
2019-04-21T20:46:45.904Z,65.10
2019-04-21T20:49:15.956Z,66.30
2019-04-21T20:51:54.326Z,67.10
2019-04-21T20:54:24.633Z,67.20
2019-04-21T20:56:49.771Z,68.50
2019-04-21T20:59:19.410Z,69.60
2019-04-21T21:01:57.934Z,70.10
2019-04-21T21:04:17.799Z,70.70
2019-04-21T21:07:01.959Z,70.80
2019-04-21T21:09:25.640Z,71.70
2019-04-21T21:12:11.372Z,72.00
2019-04-21T21:14:30.649Z,72.50
2019-04-21T21:17:04.777Z,73.30
2019-04-21T21:19:37.735Z,74.00
2019-04-21T21:21:56.458Z,74.50
2019-04-21T21:24:41.604Z,75.40
2019-04-21T21:27:05.885Z,76.00
2019-04-21T21:29:33.464Z,77.80
2019-04-21T21:32:19.557Z,77.50
2019-04-21T21:34:41.000Z,78.90
2019-04-21T21:37:21.711Z,79.40
2019-04-21T21:39:46.283Z,80.90
2019-04-21T21:41:58.580Z,81.70
2019-04-21T21:44:28.278Z,81.70
2019-04-21T21:47:06.560Z,82.50
2019-04-21T21:49:42.688Z,83.00
2019-04-21T21:52:11.504Z,83.30
2019-04-21T21:54:31.749Z,83.80
2019-04-21T21:57:02.577Z,84.10
2019-04-21T21:59:36.476Z,83.20
2019-04-21T22:02:03.932Z,83.80
2019-04-21T22:04:37.484Z,83.10
2019-04-21T22:07:09.991Z,83.80
2019-04-21T22:09:36.779Z,83.90
2019-04-21T22:12:08.749Z,85.10
2019-04-21T22:14:43.554Z,84.00
2019-04-21T22:17:24.680Z,83.90
2019-04-21T22:20:05.384Z,83.70
2019-04-21T22:22:22.887Z,84.20
2019-04-21T22:24:53.147Z,83.50
2019-04-21T22:27:13.008Z,84.10
2019-04-21T22:29:48.217Z,83.50
2019-04-21T22:32:17.420Z,84.30
2019-04-21T22:34:51.404Z,84.20
2019-04-21T22:37:30.753Z,84.50
2019-04-21T22:40:02.231Z,84.50
2019-04-21T22:42:22.419Z,84.60
2019-04-21T22:44:50.297Z,85.30
2019-04-21T22:47:24.970Z,85.10
2019-04-21T22:49:52.642Z,85.40
2019-04-21T22:52:25.850Z,85.60
2019-04-21T22:54:54.166Z,84.80
2019-04-21T22:57:27.311Z,86.70
2019-04-21T23:00:01.040Z,85.90
2019-04-21T23:02:30.541Z,86.30
2019-04-21T23:04:58.648Z,86.60
2019-04-21T23:07:32.944Z,86.70
2019-04-21T23:10:01.049Z,87.40
2019-04-21T23:12:34.621Z,87.30
2019-04-21T23:15:06.546Z,87.10
2019-04-21T23:17:53.262Z,87.60
2019-04-21T23:20:29.722Z,87.60
2019-04-21T23:23:02.082Z,87.90
2019-04-21T23:25:26.608Z,88.20
2019-04-21T23:27:57.393Z,88.20
2019-04-21T23:30:33.966Z,88.30
2019-04-21T23:32:51.381Z,88.90
2019-04-21T23:35:21.821Z,88.90
2019-04-21T23:37:54.287Z,88.50
2019-04-21T23:40:19.891Z,88.40
2019-04-21T23:42:49.166Z,88.90
2019-04-21T23:45:27.432Z,88.90
2019-04-21T23:48:01.357Z,89.20
2019-04-21T23:50:33.015Z,89.10
2019-04-21T23:52:53.373Z,89.00
2019-04-21T23:55:23.212Z,89.70
2019-04-21T23:58:04.983Z,90.00
